Time;durP1;ratioP1;P1;durP2;ratioP2;P2;SDS_P1;SDS_P2;PMS_P1;PMS_P2;Temp;Humidity;BMP_temperature;BMP_pressure;BME280_temperature;BME280_humidity;BME280_pressure;Samples;Min_cycle;Max_cycle;Signal;HPM_P1;HPM_P2
2022/02/18 00:00:11;;;;;;;5.50;1.40;;;;;;;3.06;72.33;95486.45;108130;1269;39497;-80
2022/02/18 00:03:02;;;;;;;2.30;1.30;;;;;;;3.11;71.79;95496.70;108143;1270;96137;-80
2022/02/18 00:05:34;;;;;;;6.30;2.00;;;;;;;3.13;71.52;95498.53;108106;1268;133128;-80
2022/02/18 00:08:05;;;;;;;4.10;1.30;;;;;;;3.15;71.35;95503.56;108112;1267;32321;-80
2022/02/18 00:10:36;;;;;;;4.20;1.50;;;;;;;3.15;71.19;95507.43;107733;1268;207657;-80
2022/02/18 00:13:08;;;;;;;3.40;1.40;;;;;;;3.21;69.62;95502.27;108241;1267;65586;-80
2022/02/18 00:15:39;;;;;;;4.40;1.90;;;;;;;3.32;68.65;95510.15;108141;1268;33969;-80
2022/02/18 00:18:11;;;;;;;4.40;1.50;;;;;;;3.37;68.13;95520.98;107946;1267;176476;-80
2022/02/18 00:20:41;;;;;;;6.90;2.00;;;;;;;3.36;68.65;95523.98;108156;1267;40711;-80
2022/02/18 00:23:12;;;;;;;5.90;1.90;;;;;;;3.32;68.64;95521.83;106122;1268;2607657;-82
2022/02/18 00:25:43;;;;;;;3.70;1.70;;;;;;;3.34;67.92;95523.83;106959;1267;1526050;-80
2022/02/18 00:28:14;;;;;;;4.20;1.80;;;;;;;3.35;67.90;95528.85;107928;1268;65465;-80
2022/02/18 00:30:46;;;;;;;3.20;1.40;;;;;;;3.35;67.94;95537.96;108085;1267;62823;-80
2022/02/18 00:33:19;;;;;;;9.70;1.90;;;;;;;3.33;67.47;95523.71;107996;1268;126486;-80
2022/02/18 00:35:52;;;;;;;2.80;1.10;;;;;;;3.43;66.37;95546.06;108015;1268;101345;-80
2022/02/18 00:38:23;;;;;;;3.90;1.90;;;;;;;3.46;65.70;95550.67;108031;1268;40822;-81
2022/02/18 00:40:54;;;;;;;3.20;1.50;;;;;;;3.49;65.53;95557.80;108074;1268;111825;-80
2022/02/18 00:43:25;;;;;;;6.00;1.60;;;;;;;3.46;65.29;95558.11;108207;1268;32189;-80
2022/02/18 00:45:56;;;;;;;5.20;1.70;;;;;;;3.44;65.80;95576.41;108109;1268;93879;-81
2022/02/18 00:48:27;;;;;;;4.60;1.70;;;;;;;3.38;65.95;95575.75;107890;1267;188914;-81
2022/02/18 00:50:58;;;;;;;2.20;1.10;;;;;;;3.41;65.13;95566.55;107806;1268;97227;-81
2022/02/18 00:53:31;;;;;;;3.70;1.70;;;;;;;3.42;65.03;95582.11;106473;1268;2033271;-80
2022/02/18 00:56:04;;;;;;;6.00;1.80;;;;;;;3.41;64.10;95586.41;108130;1267;59020;-80
2022/02/18 00:58:35;;;;;;;4.40;1.80;;;;;;;3.37;64.44;95600.38;107876;1267;173231;-83
2022/02/18 01:01:08;;;;;;;5.50;1.30;;;;;;;3.34;63.59;95585.58;108120;1265;39983;-81
2022/02/18 01:03:39;;;;;;;3.20;1.20;;;;;;;3.34;63.44;95592.14;108175;1268;33971;-81
2022/02/18 01:06:10;;;;;;;3.40;1.60;;;;;;;3.35;63.12;95591.66;106444;1267;1980492;-80
2022/02/18 01:08:41;;;;;;;4.10;1.40;;;;;;;3.33;63.23;95592.29;107930;1268;135820;-80
2022/02/18 01:11:12;;;;;;;2.40;0.90;;;;;;;3.32;63.09;95595.38;108079;1268;34212;-80
2022/02/18 01:13:43;;;;;;;4.00;1.50;;;;;;;3.31;63.23;95592.70;107847;1270;227821;-80
2022/02/18 01:16:15;;;;;;;4.60;1.40;;;;;;;3.29;63.50;95609.31;108068;1268;42472;-81
2022/02/18 01:18:46;;;;;;;3.00;0.90;;;;;;;3.24;63.99;95597.71;107846;1270;161076;-81
2022/02/18 01:21:17;;;;;;;3.60;1.30;;;;;;;3.25;64.10;95597.93;107974;1270;103938;-80
2022/02/18 01:23:48;;;;;;;8.90;2.20;;;;;;;3.25;64.39;95607.00;108080;1267;39646;-80
2022/02/18 01:26:19;;;;;;;6.40;2.20;;;;;;;3.21;64.79;95613.88;106834;1267;1812041;-80
2022/02/18 01:28:50;;;;;;;5.20;1.50;;;;;;;3.16;65.25;95622.61;107940;1267;131623;-80
2022/02/18 01:31:21;;;;;;;3.60;1.00;;;;;;;3.15;65.57;95615.91;108021;1268;79119;-80
2022/02/18 01:33:55;;;;;;;4.70;1.80;;;;;;;3.15;65.71;95621.61;107010;1268;1309108;-81
2022/02/18 01:36:27;;;;;;;3.70;1.20;;;;;;;3.15;65.93;95623.91;108115;1268;50170;-81
2022/02/18 01:39:01;;;;;;;3.40;1.20;;;;;;;3.14;66.04;95619.46;108024;1268;143900;-80
2022/02/18 01:41:32;;;;;;;5.00;1.70;;;;;;;3.18;65.73;95624.55;107976;1268;110548;-80
2022/02/18 01:44:05;;;;;;;2.40;1.00;;;;;;;3.21;65.42;95626.23;108109;1268;65507;-81
2022/02/18 01:46:36;;;;;;;5.40;2.00;;;;;;;3.27;64.67;95632.56;107128;1268;1259018;-80
2022/02/18 01:49:12;;;;;;;4.00;1.50;;;;;;;3.34;63.58;95610.27;105376;1268;2103685;-81
2022/02/18 01:51:45;;;;;;;4.40;1.30;;;;;;;3.39;63.57;95653.25;108077;1268;44145;-82
2022/02/18 01:54:16;;;;;;;1.90;1.00;;;;;;;3.35;63.92;95646.78;106802;1267;1759477;-81
2022/02/18 01:56:47;;;;;;;3.40;1.50;;;;;;;3.31;63.93;95645.77;107783;1268;168660;-81
2022/02/18 01:59:18;;;;;;;5.20;1.90;;;;;;;3.32;63.13;95646.36;107899;1268;180418;-82
2022/02/18 02:01:49;;;;;;;4.00;1.00;;;;;;;3.34;62.34;95642.95;108086;1267;39809;-81
2022/02/18 02:04:20;;;;;;;2.70;1.30;;;;;;;3.35;62.17;95657.88;107989;1267;109252;-81
2022/02/18 02:06:53;;;;;;;3.50;1.40;;;;;;;3.32;62.60;95665.46;108032;1268;92099;-82
2022/02/18 02:09:28;;;;;;;3.90;1.10;;;;;;;3.26;61.99;95674.20;107855;1267;175179;-81
2022/02/18 02:12:00;;;;;;;2.90;0.80;;;;;;;3.26;60.95;95664.36;106660;1268;2013952;-83
2022/02/18 02:14:30;;;;;;;2.50;1.10;;;;;;;3.28;60.15;95664.05;108243;1267;41593;-81
2022/02/18 02:17:01;;;;;;;3.70;1.60;;;;;;;3.28;60.23;95670.70;107970;1267;211262;-81
2022/02/18 02:19:32;;;;;;;4.80;1.80;;;;;;;3.21;60.81;95684.02;108115;1270;47672;-81
2022/02/18 02:22:04;;;;;;;3.70;1.60;;;;;;;3.10;60.91;95686.11;107958;1267;203134;-81
2022/02/18 02:24:35;;;;;;;4.20;1.40;;;;;;;3.09;59.77;95695.21;108007;1267;57514;-81
2022/02/18 02:27:07;;;;;;;3.60;1.10;;;;;;;3.12;59.10;95697.02;106751;1268;1859282;-81
2022/02/18 02:29:38;;;;;;;4.50;1.20;;;;;;;3.12;58.94;95707.70;106576;1267;1983147;-82
2022/02/18 02:32:10;;;;;;;2.90;0.70;;;;;;;3.13;59.04;95705.77;106641;1267;1937510;-81
2022/02/18 02:34:41;;;;;;;4.00;1.50;;;;;;;3.10;59.37;95715.85;107218;1268;1293099;-80
2022/02/18 02:37:12;;;;;;;3.40;1.30;;;;;;;3.05;59.58;95722.30;106436;1268;2051533;-82
2022/02/18 02:39:43;;;;;;;5.50;1.20;;;;;;;3.00;59.91;95728.41;106873;1270;1517654;-81
2022/02/18 02:42:16;;;;;;;3.90;1.30;;;;;;;3.02;59.50;95712.14;108121;1268;43556;-82
2022/02/18 02:44:49;;;;;;;3.80;0.80;;;;;;;3.03;59.71;95734.55;104928;1267;4403413;-82
2022/02/18 02:47:20;;;;;;;4.90;0.90;;;;;;;2.97;60.13;95720.73;108226;1268;34725;-82
2022/02/18 02:49:55;;;;;;;3.10;0.80;;;;;;;2.91;60.51;95725.46;107913;1270;258128;-82
2022/02/18 02:52:27;;;;;;;4.10;1.40;;;;;;;2.87;60.42;95723.55;106644;1267;2016871;-82
2022/02/18 02:54:58;;;;;;;3.90;1.30;;;;;;;2.81;60.79;95735.55;107997;1267;41299;-82
2022/02/18 02:57:29;;;;;;;3.30;1.60;;;;;;;2.75;60.73;95721.30;107973;1268;206935;-82
2022/02/18 03:00:01;;;;;;;6.20;1.30;;;;;;;2.68;61.01;95730.16;108169;1267;50214;-82
2022/02/18 03:02:34;;;;;;;3.70;1.10;;;;;;;2.63;61.25;95733.19;106505;1267;1973904;-82
2022/02/18 03:05:06;;;;;;;2.60;0.90;;;;;;;2.57;61.54;95748.65;106473;1270;1950787;-81
2022/02/18 03:07:38;;;;;;;3.00;1.10;;;;;;;2.53;61.65;95723.27;107984;1268;151382;-82
2022/02/18 03:10:11;;;;;;;2.80;1.30;;;;;;;2.58;61.35;95733.38;107909;1267;188944;-82
2022/02/18 03:12:42;;;;;;;4.90;1.60;;;;;;;2.55;61.59;95748.30;108091;1267;79046;-82
2022/02/18 03:15:15;;;;;;;3.90;1.40;;;;;;;2.50;61.72;95759.02;106599;1267;2002395;-82
2022/02/18 03:17:46;;;;;;;3.00;1.40;;;;;;;2.46;61.80;95755.08;106256;1268;2364502;-82
2022/02/18 03:20:17;;;;;;;8.50;1.10;;;;;;;2.48;61.55;95753.01;104185;1267;2099040;-82
2022/02/18 03:22:51;;;;;;;3.90;1.50;;;;;;;2.51;61.61;95752.70;107810;1268;271234;-82
2022/02/18 03:25:23;;;;;;;4.20;1.60;;;;;;;2.48;61.54;95760.48;107913;1268;211690;-82
2022/02/18 03:27:57;;;;;;;3.20;1.40;;;;;;;2.42;61.76;95767.29;106695;1267;1794948;-82
2022/02/18 03:30:30;;;;;;;4.80;1.60;;;;;;;2.34;61.99;95772.28;108119;1268;50671;-82
2022/02/18 03:33:04;;;;;;;4.80;1.60;;;;;;;2.32;62.00;95776.92;108140;1267;91058;-82
2022/02/18 03:35:37;;;;;;;6.60;1.40;;;;;;;2.31;62.23;95775.65;108079;1268;69914;-82
2022/02/18 03:38:08;;;;;;;3.20;1.50;;;;;;;2.33;62.44;95780.74;108095;1267;109080;-82
2022/02/18 03:40:39;;;;;;;4.30;1.30;;;;;;;2.40;62.33;95784.95;105609;1268;2050629;-81
2022/02/18 03:43:10;;;;;;;2.10;1.20;;;;;;;2.42;62.32;95788.17;108200;1268;36632;-82
2022/02/18 03:45:42;;;;;;;2.90;0.90;;;;;;;2.41;62.71;95791.71;107905;1268;220583;-82
2022/02/18 03:48:13;;;;;;;1.60;0.70;;;;;;;2.41;62.84;95792.17;106490;1271;2104705;-82
2022/02/18 03:50:46;;;;;;;1.60;0.80;;;;;;;2.43;63.19;95796.64;108118;1267;49264;-82
2022/02/18 03:53:17;;;;;;;3.30;1.40;;;;;;;2.43;63.33;95790.89;107916;1268;166200;-81
2022/02/18 03:55:49;;;;;;;5.00;1.30;;;;;;;2.43;63.33;95800.41;108177;1268;32692;-82
2022/02/18 03:58:20;;;;;;;7.20;1.60;;;;;;;2.41;63.37;95805.30;108232;1268;86929;-82
2022/02/18 04:00:51;;;;;;;3.40;1.50;;;;;;;2.38;63.52;95818.71;107139;1267;1490474;-82
2022/02/18 04:03:22;;;;;;;4.70;1.40;;;;;;;2.43;63.59;95811.86;108134;1270;68203;-82
2022/02/18 04:05:53;;;;;;;3.60;1.00;;;;;;;2.51;63.46;95816.91;108077;1270;42000;-81
2022/02/18 04:08:24;;;;;;;4.90;1.10;;;;;;;2.57;63.51;95834.63;108172;1268;40434;-82
2022/02/18 04:10:55;;;;;;;6.40;1.30;;;;;;;2.58;63.38;95838.98;108146;1270;35088;-82
2022/02/18 04:13:26;;;;;;;2.80;1.30;;;;;;;2.65;62.90;95838.71;108155;1271;43804;-81
2022/02/18 04:15:57;;;;;;;2.20;0.80;;;;;;;2.70;62.74;95838.09;108245;1268;33047;-81
2022/02/18 04:18:28;;;;;;;5.30;1.80;;;;;;;2.71;62.49;95843.29;107985;1268;184709;-81
2022/02/18 04:21:00;;;;;;;6.40;1.30;;;;;;;2.72;62.14;95843.25;108036;1270;93877;-82
2022/02/18 04:23:31;;;;;;;1.80;1.00;;;;;;;2.79;61.10;95827.34;108110;1268;184260;-81
2022/02/18 04:26:03;;;;;;;2.50;1.40;;;;;;;2.83;61.14;95840.05;108054;1268;149129;-81
2022/02/18 04:28:34;;;;;;;4.60;1.50;;;;;;;2.82;61.07;95850.83;108138;1268;32650;-80
2022/02/18 04:31:08;;;;;;;3.30;1.50;;;;;;;2.82;60.94;95840.82;108027;1271;35020;-82
2022/02/18 04:33:39;;;;;;;2.10;1.10;;;;;;;2.83;61.03;95852.11;105170;1268;2227607;-81
2022/02/18 04:36:11;;;;;;;2.80;0.90;;;;;;;2.84;60.92;95841.27;108125;1268;33323;-82
2022/02/18 04:38:42;;;;;;;2.60;1.20;;;;;;;2.85;60.86;95845.58;108142;1268;35699;-82
2022/02/18 04:41:14;;;;;;;1.80;1.00;;;;;;;2.85;60.71;95845.79;108215;1268;44272;-82
2022/02/18 04:43:45;;;;;;;4.50;1.40;;;;;;;2.84;61.10;95856.77;108053;1270;65616;-82
2022/02/18 04:46:16;;;;;;;5.20;1.30;;;;;;;2.79;61.41;95851.98;107808;1270;183058;-82
2022/02/18 04:48:47;;;;;;;2.40;1.00;;;;;;;2.77;61.53;95856.00;106621;1268;1802056;-81
2022/02/18 04:51:20;;;;;;;3.00;1.30;;;;;;;2.77;61.24;95866.05;106593;1268;2000311;-82
2022/02/18 04:53:51;;;;;;;2.30;1.00;;;;;;;2.79;60.89;95858.42;108130;1268;37085;-82
2022/02/18 04:56:22;;;;;;;4.40;1.00;;;;;;;2.84;59.36;95852.15;106968;1268;1471132;-81
2022/02/18 04:58:53;;;;;;;2.00;1.20;;;;;;;2.92;59.51;95863.64;106799;1268;1796077;-82
2022/02/18 05:01:26;;;;;;;1.90;0.80;;;;;;;2.88;60.09;95866.73;107939;1268;161448;-80
2022/02/18 05:03:57;;;;;;;4.20;1.20;;;;;;;2.84;59.97;95867.13;108126;1267;138048;-82
2022/02/18 05:06:27;;;;;;;3.70;1.00;;;;;;;2.81;59.94;95871.58;108171;1268;36375;-81
2022/02/18 05:08:59;;;;;;;3.40;1.00;;;;;;;2.80;59.88;95872.05;108002;1268;163412;-80
2022/02/18 05:11:29;;;;;;;4.00;0.70;;;;;;;2.83;59.49;95874.14;108239;1268;33873;-81
2022/02/18 05:14:01;;;;;;;2.10;0.80;;;;;;;2.86;58.90;95874.52;108200;1268;53875;-81
2022/02/18 05:16:32;;;;;;;1.80;1.00;;;;;;;2.91;58.74;95879.28;107071;1268;1592367;-81
2022/02/18 05:19:06;;;;;;;1.60;0.80;;;;;;;2.91;58.71;95876.61;108150;1267;33040;-81
2022/02/18 05:21:37;;;;;;;5.00;1.00;;;;;;;2.90;58.90;95881.21;108102;1268;100991;-81
2022/02/18 05:24:09;;;;;;;2.30;0.70;;;;;;;2.90;58.72;95877.55;107964;1270;113084;-81
2022/02/18 05:26:41;;;;;;;5.40;1.20;;;;;;;2.94;58.28;95884.80;108095;1268;34922;-81
2022/02/18 05:29:12;;;;;;;2.20;0.80;;;;;;;2.93;58.14;95872.65;106533;1268;2074372;-81
2022/02/18 05:31:43;;;;;;;4.50;1.60;;;;;;;2.95;58.11;95873.59;106923;1268;1728885;-81
2022/02/18 05:34:14;;;;;;;1.40;0.90;;;;;;;2.96;58.05;95884.15;108176;1271;35645;-81
2022/02/18 05:36:48;;;;;;;1.30;0.70;;;;;;;2.94;57.92;95881.71;106542;1265;2146795;-81
2022/02/18 05:39:20;;;;;;;2.60;1.20;;;;;;;2.95;57.69;95891.52;108104;1268;51386;-82
2022/02/18 05:41:51;;;;;;;3.50;1.10;;;;;;;2.93;58.07;95890.45;107948;1268;138746;-81
2022/02/18 05:44:23;;;;;;;3.50;1.50;;;;;;;2.88;57.99;95885.06;107926;1268;134855;-81
2022/02/18 05:46:54;;;;;;;3.30;1.10;;;;;;;2.86;58.08;95893.23;107726;1268;133827;-83
2022/02/18 05:49:25;;;;;;;3.70;1.30;;;;;;;2.89;57.87;95875.02;108089;1268;37607;-81
2022/02/18 05:51:56;;;;;;;1.40;0.80;;;;;;;2.92;57.80;95896.09;108089;1268;125272;-81
2022/02/18 05:54:27;;;;;;;4.10;1.30;;;;;;;2.96;57.77;95894.89;106644;1268;2010449;-82
2022/02/18 05:57:00;;;;;;;3.40;1.10;;;;;;;2.96;57.98;95904.80;107952;1268;251478;-82
2022/02/18 05:59:31;;;;;;;5.20;1.60;;;;;;;2.95;58.21;95901.20;108134;1267;40742;-81
2022/02/18 06:02:02;;;;;;;4.10;1.30;;;;;;;2.93;58.35;95903.07;107950;1268;175929;-81
2022/02/18 06:04:33;;;;;;;2.70;1.00;;;;;;;2.94;57.77;95902.66;106681;1268;1997421;-82
2022/02/18 06:07:05;;;;;;;2.30;0.80;;;;;;;3.01;57.74;95914.62;106642;1268;2055270;-81
2022/02/18 06:09:36;;;;;;;5.30;1.60;;;;;;;3.01;57.37;95906.83;108039;1270;116255;-81
2022/02/18 06:12:09;;;;;;;5.50;1.30;;;;;;;2.97;57.43;95916.89;107707;1268;232026;-81
2022/02/18 06:25:30;;;;;;;1.90;0.80;;;;;;;3.15;57.42;95932.83;104276;1303;557707;-85
2022/02/18 06:28:09;;;;;;;2.60;1.10;;;;;;;3.21;57.30;95942.15;107088;1281;261906;-84
2022/02/18 06:30:40;;;;;;;3.20;1.20;;;;;;;3.45;56.86;95948.04;107490;1271;128463;-84
2022/02/18 06:33:11;;;;;;;4.30;1.30;;;;;;;3.37;56.86;95958.80;107679;1271;130285;-84
2022/02/18 06:35:43;;;;;;;4.10;1.00;;;;;;;3.31;57.07;95970.23;107549;1268;138932;-84
2022/02/18 06:38:14;;;;;;;2.10;0.80;;;;;;;3.43;57.04;95974.31;106630;1271;1493100;-84
2022/02/18 06:40:45;;;;;;;2.60;0.90;;;;;;;4.13;56.24;95972.52;107796;1270;136429;-84
2022/02/18 06:43:16;;;;;;;2.50;0.90;;;;;;;4.83;54.44;95976.91;107944;1271;103916;-84
2022/02/18 06:45:47;;;;;;;7.30;1.20;;;;;;;5.25;53.95;95978.57;107941;1271;96551;-84
2022/02/18 06:48:19;;;;;;;2.50;1.00;;;;;;;5.26;53.04;95983.67;108011;1269;32153;-85
2022/02/18 06:50:50;;;;;;;3.20;0.90;;;;;;;5.48;52.98;95990.34;107577;1271;257548;-85
2022/02/18 06:53:21;;;;;;;2.40;0.90;;;;;;;5.82;51.35;95986.86;107802;1269;201806;-85
2022/02/18 06:55:53;;;;;;;1.90;0.90;;;;;;;5.76;51.31;95996.05;107035;1271;1158068;-84
2022/02/18 06:58:24;;;;;;;2.80;0.90;;;;;;;5.91;50.54;95988.09;106532;1268;2027827;-85
2022/02/18 07:00:55;;;;;;;4.40;1.30;;;;;;;5.69;50.27;95997.00;107789;1271;177722;-85
2022/02/18 07:03:26;;;;;;;2.20;0.80;;;;;;;5.58;50.29;95987.78;106950;1271;1490067;-85
2022/02/18 07:05:59;;;;;;;4.30;1.20;;;;;;;5.84;50.22;95991.02;107934;1271;130685;-85
2022/02/18 07:08:31;;;;;;;3.00;1.50;;;;;;;5.72;49.55;95981.17;108026;1268;34169;-85
2022/02/18 07:11:02;;;;;;;4.00;1.80;;;;;;;5.44;49.96;95989.81;107851;1271;194539;-85
2022/02/18 07:13:33;;;;;;;2.00;1.00;;;;;;;6.13;50.81;95986.70;106765;1271;1548630;-84
2022/02/18 07:16:05;;;;;;;5.10;1.60;;;;;;;6.80;48.54;95982.14;107817;1271;152273;-85
2022/02/18 07:18:37;;;;;;;3.60;1.10;;;;;;;7.11;47.48;95980.43;107767;1271;186189;-84
2022/02/18 07:21:08;;;;;;;2.60;1.30;;;;;;;7.39;47.02;95984.50;107565;1269;221984;-86
2022/02/18 07:23:39;;;;;;;2.60;1.10;;;;;;;7.75;46.84;95981.33;107493;1271;158506;-85
2022/02/18 07:26:11;;;;;;;4.10;1.00;;;;;;;7.92;45.00;95981.20;107615;1270;119489;-86
2022/02/18 07:28:43;;;;;;;2.20;1.00;;;;;;;7.88;44.05;95978.90;107635;1271;105831;-84
2022/02/18 07:31:15;;;;;;;2.30;1.20;;;;;;;7.78;43.50;95986.42;107613;1271;126232;-84
2022/02/18 07:33:46;;;;;;;2.40;1.10;;;;;;;7.84;44.07;95988.95;107628;1271;151621;-83
2022/02/18 07:36:17;;;;;;;4.60;1.00;;;;;;;8.06;43.34;95980.39;107511;1271;115041;-84
2022/02/18 07:38:50;;;;;;;3.30;1.30;;;;;;;8.13;43.33;95985.35;107617;1269;160856;-84
2022/02/18 07:41:21;;;;;;;2.00;1.10;;;;;;;8.41;43.49;95987.13;107689;1271;107486;-85
2022/02/18 07:43:53;;;;;;;3.20;1.20;;;;;;;8.56;42.78;95989.02;108027;1271;46440;-85
2022/02/18 07:46:25;;;;;;;3.40;1.40;;;;;;;8.68;42.26;95984.37;107832;1271;156537;-84
2022/02/18 07:48:57;;;;;;;2.90;1.30;;;;;;;8.69;42.54;95989.96;108007;1271;32699;-85
2022/02/18 07:51:30;;;;;;;4.20;1.40;;;;;;;8.87;42.74;95989.48;108000;1269;43869;-85
2022/02/18 07:54:01;;;;;;;3.20;1.10;;;;;;;9.08;41.67;95985.70;106731;1271;1761573;-85
2022/02/18 07:56:33;;;;;;;5.10;1.60;;;;;;;8.61;40.90;95993.73;106941;1271;1547460;-86
2022/02/18 07:59:04;;;;;;;4.80;1.40;;;;;;;8.60;41.75;96001.20;106985;1271;1166537;-84
2022/02/18 08:01:37;;;;;;;3.80;1.00;;;;;;;8.61;41.21;96010.86;107691;1271;175290;-84
2022/02/18 08:04:08;;;;;;;4.60;1.10;;;;;;;8.49;40.98;95993.16;105331;1271;2036473;-84
2022/02/18 08:06:39;;;;;;;3.40;1.20;;;;;;;8.20;42.06;96007.25;107981;1271;84535;-85
2022/02/18 08:09:10;;;;;;;3.70;1.00;;;;;;;8.24;42.36;96018.98;107944;1269;102984;-84
2022/02/18 08:11:43;;;;;;;2.20;1.00;;;;;;;8.28;42.20;96023.86;107987;1268;209463;-85
2022/02/18 08:14:14;;;;;;;3.20;1.50;;;;;;;8.11;42.42;96027.39;108199;1267;37232;-84
2022/02/18 08:16:45;;;;;;;3.60;1.20;;;;;;;7.31;43.51;96036.91;107166;1265;1307709;-85
2022/02/18 08:19:20;;;;;;;4.70;1.50;;;;;;;7.20;44.00;96031.95;106806;1268;1732130;-85
2022/02/18 08:21:55;;;;;;;3.10;0.80;;;;;;;7.26;45.20;96036.05;107047;1268;1482914;-84
2022/02/18 08:24:27;;;;;;;2.70;1.40;;;;;;;7.26;44.58;96030.82;107894;1268;231415;-84
2022/02/18 08:27:01;;;;;;;4.20;1.20;;;;;;;7.42;44.58;96034.17;105136;1268;4027417;-84
2022/02/18 08:29:35;;;;;;;5.90;1.00;;;;;;;7.32;44.35;96023.52;107983;1268;140518;-84
2022/02/18 08:32:07;;;;;;;3.50;1.20;;;;;;;7.35;45.77;96038.38;108111;1268;35049;-82
2022/02/18 08:34:41;;;;;;;4.80;1.50;;;;;;;7.55;45.50;96035.68;108025;1268;142707;-84
2022/02/18 08:37:12;;;;;;;2.70;1.00;;;;;;;7.39;45.10;96034.41;106607;1268;1986799;-84
2022/02/18 08:39:44;;;;;;;4.40;1.30;;;;;;;7.02;45.73;96028.17;107991;1268;190191;-84
2022/02/18 08:42:18;;;;;;;6.50;1.40;;;;;;;7.07;47.20;96034.11;108118;1268;65838;-85
2022/02/18 08:44:49;;;;;;;5.00;0.90;;;;;;;7.34;46.01;96024.73;107159;1268;1227259;-84
2022/02/18 08:47:21;;;;;;;4.10;1.40;;;;;;;7.11;45.68;96032.36;106717;1270;1811966;-85
2022/02/18 08:49:52;;;;;;;2.30;1.10;;;;;;;6.92;46.49;96031.91;107912;1268;224094;-85
2022/02/18 08:52:23;;;;;;;8.80;1.60;;;;;;;7.00;46.55;96029.33;108119;1268;43324;-84
2022/02/18 08:54:54;;;;;;;2.90;1.10;;;;;;;6.87;45.25;96026.33;107921;1268;149131;-85
2022/02/18 08:57:25;;;;;;;4.40;0.90;;;;;;;6.74;45.88;96022.83;108090;1267;68940;-84
2022/02/18 08:59:56;;;;;;;3.00;0.80;;;;;;;6.59;45.40;96022.04;108191;1268;35986;-85
2022/02/18 09:02:27;;;;;;;3.60;0.80;;;;;;;6.44;45.77;96026.95;108184;1268;34453;-84
2022/02/18 09:04:58;;;;;;;3.60;1.20;;;;;;;6.32;45.46;96035.13;108181;1268;42037;-84
2022/02/18 09:07:30;;;;;;;2.60;0.90;;;;;;;6.20;45.66;96029.14;108141;1268;34587;-84
2022/02/18 09:10:02;;;;;;;0.90;0.60;;;;;;;6.10;45.19;96034.20;107909;1266;193274;-84
2022/02/18 09:12:37;;;;;;;5.10;1.40;;;;;;;6.02;44.73;96034.18;107954;1268;163530;-84
2022/02/18 09:15:10;;;;;;;15.30;5.80;;;;;;;6.01;45.08;96046.92;106757;1268;1964486;-84
2022/02/18 09:17:46;;;;;;;14.50;6.00;;;;;;;6.02;44.93;96050.55;108191;1268;50099;-84
2022/02/18 09:20:17;;;;;;;11.60;3.70;;;;;;;6.07;44.29;96042.52;108130;1268;47865;-85
2022/02/18 09:22:50;;;;;;;2.80;1.50;;;;;;;6.11;44.45;96047.04;108017;1268;132386;-84
2022/02/18 09:25:21;;;;;;;2.10;0.30;;;;;;;6.29;44.64;96047.29;108124;1268;36719;-84
2022/02/18 09:27:52;;;;;;;3.70;0.90;;;;;;;6.43;43.69;96041.16;107959;1268;34471;-84
2022/02/18 09:43:16;;;;;;;2.30;0.60;;;;;;;6.72;42.48;96046.13;104000;1306;557815;-82
2022/02/18 09:45:48;;;;;;;2.40;1.20;;;;;;;6.59;42.26;96052.10;107214;1274;149417;-82
2022/02/18 09:48:20;;;;;;;2.30;0.40;;;;;;;6.56;42.44;96051.53;107851;1268;117030;-83
2022/02/18 09:50:51;;;;;;;2.70;1.80;;;;;;;6.53;42.65;96055.55;107988;1266;92423;-83
2022/02/18 09:53:22;;;;;;;0.90;0.50;;;;;;;6.56;43.86;96055.22;108165;1268;34064;-83
2022/02/18 09:55:55;;;;;;;1.70;0.70;;;;;;;6.60;43.14;96065.73;108033;1268;152328;-82
2022/02/18 09:58:26;;;;;;;2.20;1.20;;;;;;;6.60;43.75;96060.16;108042;1268;143079;-82
2022/02/18 10:00:59;;;;;;;10.10;4.10;;;;;;;6.72;43.99;96063.04;107235;1268;1157967;-83
2022/02/18 10:03:30;;;;;;;1.10;0.40;;;;;;;6.72;43.45;96067.05;108168;1268;117869;-82
2022/02/18 10:06:01;;;;;;;1.70;0.80;;;;;;;6.56;43.52;96058.42;108248;1268;34949;-83
2022/02/18 10:08:47;;;;;;;5.20;1.40;;;;;;;6.51;44.68;96069.08;108133;1268;163245;-83
2022/02/18 10:11:21;;;;;;;2.10;0.70;;;;;;;6.54;44.60;96065.70;108218;1267;34732;-84
2022/02/18 10:13:54;;;;;;;5.00;1.30;;;;;;;6.58;45.65;96070.17;108143;1268;76573;-83
2022/02/18 10:16:27;;;;;;;1.70;0.70;;;;;;;6.74;45.57;96064.13;106148;1268;2544172;-83
2022/02/18 10:19:02;;;;;;;3.10;1.10;;;;;;;6.70;44.93;96067.04;106979;1268;1418250;-82
2022/02/18 10:21:35;;;;;;;1.90;0.90;;;;;;;6.66;45.46;96067.37;107844;1268;130397;-82
2022/02/18 10:24:12;;;;;;;1.70;1.10;;;;;;;6.80;45.38;96054.91;107794;1268;120172;-82
2022/02/18 10:26:46;;;;;;;0.90;0.60;;;;;;;6.96;45.12;96060.40;107829;1268;128654;-82
2022/02/18 10:29:21;;;;;;;1.60;0.70;;;;;;;7.13;44.33;96043.52;107618;1268;232577;-82
2022/02/18 10:32:10;;;;;;;6.60;1.60;;;;;;;7.24;44.93;96049.45;107733;1268;155762;-82
2022/02/18 10:34:58;;;;;;;2.80;1.40;;;;;;;7.48;44.89;96049.60;107625;1268;145824;-82
2022/02/18 10:37:32;;;;;;;2.50;1.00;;;;;;;7.62;44.30;96054.32;107491;1271;141686;-82
2022/02/18 10:40:10;;;;;;;1.90;1.00;;;;;;;7.82;44.71;96058.95;107942;1268;122609;-82
2022/02/18 10:42:44;;;;;;;2.70;1.20;;;;;;;7.91;44.74;96048.98;107699;1267;126847;-82
2022/02/18 10:45:19;;;;;;;4.60;1.20;;;;;;;8.04;45.42;96040.96;108013;1268;131566;-82
2022/02/18 10:48:05;;;;;;;5.70;1.10;;;;;;;8.17;45.22;96041.28;107719;1268;176762;-84
2022/02/18 10:50:37;;;;;;;1.10;0.60;;;;;;;8.33;44.92;96036.15;107781;1268;119159;-82
2022/02/18 10:53:15;;;;;;;1.80;0.60;;;;;;;8.21;43.35;96018.70;107846;1268;101980;-82
2022/02/18 10:55:54;;;;;;;1.80;0.90;;;;;;;8.13;44.09;96035.23;107700;1268;118956;-82
2022/02/18 10:58:28;;;;;;;3.90;1.30;;;;;;;8.27;44.00;96032.48;107786;1268;112213;-82
2022/02/18 11:01:16;;;;;;;1.50;0.80;;;;;;;8.24;43.31;96027.17;107819;1268;148414;-82
2022/02/18 11:03:49;;;;;;;2.20;1.20;;;;;;;8.18;43.46;96024.77;107777;1268;156263;-82
2022/02/18 11:06:25;;;;;;;1.90;0.80;;;;;;;8.18;43.78;96020.95;107664;1268;137344;-82
2022/02/18 11:09:00;;;;;;;3.90;0.90;;;;;;;7.97;43.11;96018.05;107797;1268;121823;-83
2022/02/18 11:11:34;;;;;;;1.90;0.90;;;;;;;7.87;43.80;96017.42;107719;1268;223096;-82
2022/02/18 11:14:07;;;;;;;1.70;0.80;;;;;;;7.76;43.52;96021.89;107772;1268;105540;-83
2022/02/18 11:16:42;;;;;;;2.10;0.80;;;;;;;7.55;43.38;96019.70;107837;1267;113103;-83
2022/02/18 11:19:20;;;;;;;2.50;1.00;;;;;;;7.63;43.85;96013.95;107730;1268;236999;-83
2022/02/18 11:21:51;;;;;;;2.30;0.80;;;;;;;7.73;43.57;96008.71;107791;1268;155964;-84
2022/02/18 11:24:24;;;;;;;2.60;0.90;;;;;;;7.81;43.97;96011.14;107719;1268;125030;-82
2022/02/18 11:26:59;;;;;;;4.80;1.30;;;;;;;7.97;44.38;96014.93;107805;1268;85297;-83
2022/02/18 11:29:35;;;;;;;3.70;1.10;;;;;;;8.12;44.01;96014.49;108002;1268;237018;-83
2022/02/18 11:32:21;;;;;;;2.40;0.60;;;;;;;8.09;44.31;96007.30;108170;1268;39317;-82
2022/02/18 11:35:12;;;;;;;4.00;1.40;;;;;;;8.10;44.63;96006.80;108238;1268;36738;-82
2022/02/18 11:38:07;;;;;;;2.90;1.20;;;;;;;8.27;45.72;96008.63;108210;1268;105763;-82
2022/02/18 11:40:54;;;;;;;4.20;1.50;;;;;;;8.36;45.47;96014.27;108205;1268;42181;-82
2022/02/18 11:43:33;;;;;;;2.40;1.00;;;;;;;8.42;45.38;96009.24;108052;1268;191764;-83
2022/02/18 11:46:08;;;;;;;1.10;0.60;;;;;;;8.20;44.29;96007.20;106828;1268;1863822;-83
2022/02/18 11:48:49;;;;;;;4.10;1.30;;;;;;;8.11;44.14;96008.60;108229;1268;46635;-83
2022/02/18 11:51:23;;;;;;;3.00;1.10;;;;;;;7.98;44.23;96013.98;108080;1268;64982;-83
2022/02/18 11:53:58;;;;;;;3.20;1.10;;;;;;;7.77;44.86;96007.43;107790;1268;226215;-82
2022/02/18 11:56:53;;;;;;;5.50;1.30;;;;;;;7.94;44.56;96004.98;106686;1268;1784553;-83
2022/02/18 11:59:44;;;;;;;3.00;1.30;;;;;;;8.10;42.83;95987.92;106775;1266;1792249;-83
2022/02/18 12:02:16;;;;;;;4.50;1.00;;;;;;;8.08;43.20;95989.83;106972;1268;1562934;-83
2022/02/18 12:05:07;;;;;;;5.20;1.70;;;;;;;8.17;43.86;95989.38;108140;1268;140185;-82
2022/02/18 12:07:43;;;;;;;3.00;1.40;;;;;;;8.19;43.61;95981.08;108086;1268;42932;-82
2022/02/18 12:10:21;;;;;;;6.20;1.80;;;;;;;8.19;43.75;95974.96;107780;1268;181634;-82
2022/02/18 12:13:02;;;;;;;3.70;1.30;;;;;;;8.25;44.96;95961.00;108190;1267;142975;-83
2022/02/18 12:15:35;;;;;;;4.20;1.20;;;;;;;8.28;43.83;95956.73;108279;1268;33430;-82